Time;durP1;ratioP1;P1;durP2;ratioP2;P2;SDS_P1;SDS_P2;PMS_P1;PMS_P2;Temp;Humidity;BMP_temperature;BMP_pressure;BME280_temperature;BME280_humidity;BME280_pressure;Samples;Min_cycle;Max_cycle;Signal;HPM_P1;HPM_P2
2022/12/15 00:39:58;;;;;;;33.83;16.73;;;-5.10;99.90;;;;;;5034363;28;20401;-39
2022/12/15 00:42:27;;;;;;;36.40;17.80;;;-5.10;99.90;;;;;;5034059;28;20859;-40
2022/12/15 00:44:54;;;;;;;37.77;18.27;;;-5.10;99.90;;;;;;5033896;28;20903;-39
2022/12/15 00:47:20;;;;;;;35.40;17.17;;;-5.10;99.90;;;;;;5033861;28;20445;-40
2022/12/15 01:20:17;;;;;;;31.63;16.70;;;-4.80;99.90;;;;;;5045797;28;20586;-39
2022/12/15 01:22:51;;;;;;;27.17;14.33;;;-4.80;99.90;;;;;;5052363;28;20444;-39
2022/12/15 01:25:19;;;;;;;28.33;15.63;;;-4.80;90.00;;;;;;5048903;28;20503;-39
2022/12/15 01:27:45;;;;;;;34.00;15.93;;;-4.80;88.00;;;;;;5051647;28;20582;-39
2022/12/15 01:30:14;;;;;;;29.73;15.87;;;-4.80;64.80;;;;;;5049723;28;20468;-39
2022/12/15 01:32:43;;;;;;;32.03;15.60;;;-4.80;51.90;;;;;;5050995;28;20401;-39
2022/12/15 01:35:19;;;;;;;31.47;16.17;;;-4.70;31.00;;;;;;5032437;28;20437;-39
2022/12/15 01:37:45;;;;;;;30.27;16.90;;;-4.70;14.50;;;;;;5039338;28;20865;-39
2022/12/15 01:42:59;;;;;;;32.27;15.30;;;-4.80;6.80;;;;;;5047448;28;21036;-39
2022/12/15 01:45:28;;;;;;;28.53;15.07;;;-4.80;7.90;;;;;;5050537;28;20433;-39
2022/12/15 01:48:24;;;;;;;35.17;15.73;;;-4.80;7.40;;;;;;5048029;28;20483;-38
2022/12/15 01:51:23;;;;;;;29.77;15.10;;;-4.80;1.00;;;;;;5028659;28;20445;-39
2022/12/15 01:54:01;;;;;;;27.47;14.07;;;-4.80;1.00;;;;;;5047086;28;20530;-38
2022/12/15 01:56:30;;;;;;;30.23;14.77;;;-4.90;1.00;;;;;;5049959;28;20517;-38
2022/12/15 01:59:01;;;;;;;33.63;15.67;;;-5.00;1.00;;;;;;5047697;28;20448;-39
2022/12/15 02:01:27;;;;;;;36.83;16.27;;;-5.00;1.00;;;;;;5046880;28;20521;-40
2022/12/15 02:03:56;;;;;;;31.03;15.67;;;-5.00;1.00;;;;;;5051522;28;20525;-39
2022/12/15 02:06:24;;;;;;;31.83;16.23;;;-5.00;1.00;;;;;;5051541;28;20448;-40
2022/12/15 02:08:54;;;;;;;32.57;16.00;;;-5.10;1.00;;;;;;5051395;28;20432;-40
2022/12/15 02:11:31;;;;;;;29.60;15.17;;;-5.20;1.00;;;;;;5035432;28;20443;-40
2022/12/15 02:14:02;;;;;;;36.30;16.60;;;-5.20;1.00;;;;;;5051382;28;21115;-39
2022/12/15 02:16:34;;;;;;;33.13;16.47;;;-5.20;1.00;;;;;;5050388;28;20436;-40
2022/12/15 02:19:33;;;;;;;31.73;16.13;;;-5.30;6.40;;;;;;5050993;28;20448;-39
2022/12/15 02:22:16;;;;;;;33.77;16.87;;;-5.30;16.50;;;;;;5032524;28;20406;-39
2022/12/15 02:24:54;;;;;;;31.97;14.97;;;-5.30;25.50;;;;;;5037393;28;20992;-40
2022/12/15 02:27:59;;;;;;;33.50;16.93;;;-5.30;28.40;;;;;;5050473;28;20463;-40
2022/12/15 02:30:38;;;;;;;34.33;16.27;;;-5.30;34.20;;;;;;5039163;28;20452;-39
2022/12/15 02:33:26;;;;;;;30.40;16.10;;;-5.40;34.30;;;;;;5043233;28;20428;-39
2022/12/15 02:36:22;;;;;;;37.83;16.00;;;-5.40;38.10;;;;;;5042112;28;20949;-38
2022/12/15 02:38:48;;;;;;;34.87;16.80;;;-5.40;43.90;;;;;;5039522;28;20436;-39
2022/12/15 02:41:35;;;;;;;38.63;16.90;;;-5.50;61.00;;;;;;5051347;28;20432;-39
2022/12/15 02:44:08;;;;;;;34.47;16.20;;;-5.50;90.60;;;;;;5040886;28;20820;-39
2022/12/15 02:46:43;;;;;;;35.67;16.03;;;-5.50;94.90;;;;;;5032329;28;20469;-39
2022/12/15 02:49:59;;;;;;;35.03;17.00;;;-5.50;89.30;;;;;;5050630;28;20448;-39
2022/12/15 02:52:46;;;;;;;30.47;15.33;;;-5.50;95.90;;;;;;5045753;28;20436;-39
2022/12/15 02:55:42;;;;;;;35.07;17.37;;;-5.50;95.60;;;;;;5033186;28;20446;-39
2022/12/15 02:58:41;;;;;;;36.13;16.60;;;-5.50;99.90;;;;;;5048028;28;20437;-39
2022/12/15 03:01:35;;;;;;;36.77;16.23;;;-5.50;99.90;;;;;;5051078;28;20433;-39
2022/12/15 03:04:04;;;;;;;32.33;15.57;;;-5.40;99.90;;;;;;5051074;28;20427;-39
2022/12/15 03:06:32;;;;;;;38.03;17.67;;;-5.50;99.90;;;;;;5048354;28;20538;-39
2022/12/15 03:08:58;;;;;;;34.83;17.60;;;-5.40;99.90;;;;;;5043723;28;20421;-39
2022/12/15 03:11:25;;;;;;;32.63;16.53;;;-5.30;99.90;;;;;;5051031;28;20952;-40
2022/12/15 03:13:52;;;;;;;30.23;16.13;;;-5.30;99.90;;;;;;5051113;28;20171;-39
2022/12/15 03:16:18;;;;;;;35.70;17.37;;;-5.30;99.90;;;;;;5050992;28;20453;-38
2022/12/15 03:19:04;;;;;;;37.10;17.37;;;-5.30;99.90;;;;;;5050925;28;20416;-41
2022/12/15 03:21:33;;;;;;;35.10;17.20;;;-5.30;99.90;;;;;;5050737;28;20428;-41
2022/12/15 03:24:01;;;;;;;33.40;17.40;;;-5.30;99.90;;;;;;5046392;28;20445;-39
2022/12/15 03:26:30;;;;;;;38.67;17.43;;;-5.20;99.90;;;;;;5049746;28;20472;-40
2022/12/15 03:28:56;;;;;;;35.83;16.83;;;-5.20;99.90;;;;;;5050345;28;20472;-40
2022/12/15 03:31:25;;;;;;;33.40;16.20;;;-5.20;99.90;;;;;;5050840;28;20846;-40
2022/12/15 03:33:52;;;;;;;38.73;18.07;;;-5.30;99.90;;;;;;5051043;28;20404;-39
2022/12/15 03:36:39;;;;;;;36.53;18.43;;;-5.30;99.90;;;;;;5050846;28;20443;-40
2022/12/15 03:39:06;;;;;;;41.17;17.77;;;-5.30;99.90;;;;;;5050684;28;20429;-41
2022/12/15 03:41:32;;;;;;;36.90;16.47;;;-5.20;99.90;;;;;;5050148;28;20804;-40
2022/12/15 03:44:01;;;;;;;32.07;17.47;;;-5.20;99.90;;;;;;5033113;28;20461;-40
2022/12/15 03:46:46;;;;;;;40.20;19.90;;;-5.20;99.90;;;;;;5045634;28;21257;-41
2022/12/15 03:49:21;;;;;;;39.10;17.43;;;-5.20;99.90;;;;;;5032134;28;20440;-40
2022/12/15 03:51:47;;;;;;;34.83;17.60;;;-5.20;99.90;;;;;;5048252;28;20440;-40
2022/12/15 03:54:22;;;;;;;34.30;17.57;;;-5.30;99.90;;;;;;5047767;28;20428;-39
2022/12/15 03:56:55;;;;;;;38.77;18.70;;;-5.20;1.00;;;;;;5048590;28;20436;-39
2022/12/15 03:59:24;;;;;;;34.40;17.73;;;-5.20;1.00;;;;;;5048778;28;21096;-40
2022/12/15 04:01:50;;;;;;;35.57;17.17;;;-5.20;1.00;;;;;;5049181;28;20456;-39
2022/12/15 04:04:18;;;;;;;36.67;17.90;;;-5.20;1.00;;;;;;5049682;28;20922;-39
2022/12/15 04:06:52;;;;;;;35.53;17.70;;;-5.10;1.00;;;;;;5047962;28;20275;-40
2022/12/15 04:09:26;;;;;;;38.47;17.23;;;-5.10;1.00;;;;;;5049260;28;20443;-38
2022/12/15 04:12:02;;;;;;;37.27;17.70;;;-5.10;1.00;;;;;;5048560;28;20768;-39
2022/12/15 04:14:34;;;;;;;33.17;17.07;;;-5.10;1.00;;;;;;5048564;28;20506;-39
2022/12/15 04:17:00;;;;;;;38.43;18.60;;;-5.10;1.00;;;;;;5048641;28;20539;-39
2022/12/15 04:22:13;;;;;;;40.97;17.40;;;-5.00;1.00;;;;;;5049372;28;20237;-40
2022/12/15 05:33:24;;;;;;;47.47;19.37;;;-5.20;1.00;;;;;;5043888;28;20471;-41
2022/12/15 05:35:57;;;;;;;38.03;19.23;;;-5.20;99.90;;;;;;5035780;28;20468;-40
2022/12/15 05:38:23;;;;;;;35.90;19.20;;;-5.20;99.90;;;;;;5033631;28;20448;-40
2022/12/15 05:40:49;;;;;;;42.67;20.00;;;-5.20;99.90;;;;;;5034625;28;20478;-40
2022/12/15 05:43:18;;;;;;;38.60;19.40;;;-5.20;99.90;;;;;;5051627;28;20724;-41
2022/12/15 05:45:47;;;;;;;46.33;20.40;;;-5.20;1.00;;;;;;5052388;28;20436;-40
2022/12/15 05:48:13;;;;;;;34.13;17.73;;;-5.30;1.00;;;;;;5051449;28;20530;-40
2022/12/15 05:50:39;;;;;;;40.57;19.83;;;-5.30;1.00;;;;;;5051492;28;20918;-40
2022/12/15 05:53:05;;;;;;;36.33;19.10;;;-5.20;24.60;;;;;;5044579;28;20449;-40
2022/12/15 05:55:31;;;;;;;38.07;18.57;;;-5.10;99.90;;;;;;5048704;28;20497;-40
2022/12/15 05:57:59;;;;;;;35.77;17.50;;;-5.10;94.50;;;;;;5050972;28;20452;-40
2022/12/15 06:00:29;;;;;;;38.93;19.10;;;-5.10;38.90;;;;;;5051606;28;20509;-40
2022/12/15 06:02:55;;;;;;;38.90;19.00;;;-5.10;1.00;;;;;;5051468;28;20827;-40
2022/12/15 06:05:20;;;;;;;42.13;18.37;;;-5.20;1.00;;;;;;5051525;28;20546;-41
2022/12/15 06:07:46;;;;;;;36.40;19.37;;;-5.20;99.90;;;;;;5051962;28;20484;-40
2022/12/15 06:10:15;;;;;;;35.80;18.20;;;-5.10;99.90;;;;;;5052007;28;20196;-41
2022/12/15 06:12:41;;;;;;;36.57;18.50;;;-5.00;99.90;;;;;;5050743;28;20187;-40
2022/12/15 06:15:07;;;;;;;38.27;18.70;;;-5.00;1.00;;;;;;5048429;28;20857;-40
2022/12/15 06:17:33;;;;;;;41.07;18.80;;;-4.90;99.90;;;;;;5051423;28;21297;-41
2022/12/15 06:19:59;;;;;;;39.43;20.20;;;-4.90;99.90;;;;;;5031833;28;20440;-41
2022/12/15 06:22:26;;;;;;;37.83;17.97;;;-4.90;99.90;;;;;;5051366;28;20455;-41
2022/12/15 06:24:52;;;;;;;40.83;19.13;;;-5.00;99.90;;;;;;5050711;28;20287;-41
2022/12/15 06:27:18;;;;;;;36.83;18.90;;;-5.00;99.90;;;;;;5051050;28;20907;-40
2022/12/15 06:29:44;;;;;;;40.20;19.77;;;-5.00;99.90;;;;;;5053093;28;20260;-41
2022/12/15 06:32:10;;;;;;;45.37;20.27;;;-5.00;1.00;;;;;;5049265;28;20551;-41
2022/12/15 06:34:36;;;;;;;35.03;18.00;;;-5.10;1.00;;;;;;5051502;28;20190;-39
2022/12/15 06:37:02;;;;;;;44.93;20.10;;;-5.10;1.00;;;;;;5051703;28;20318;-41
2022/12/15 06:39:27;;;;;;;37.97;19.67;;;-5.00;99.90;;;;;;5051898;28;20197;-41
2022/12/15 06:41:53;;;;;;;40.37;19.40;;;-5.00;1.00;;;;;;5050792;28;20672;-41
2022/12/15 06:44:20;;;;;;;39.83;19.77;;;-5.00;1.00;;;;;;5050717;28;20483;-42
2022/12/15 06:46:48;;;;;;;41.70;19.77;;;-5.00;1.00;;;;;;5050356;28;20281;-41
2022/12/15 06:49:17;;;;;;;38.97;20.33;;;-5.00;1.00;;;;;;5047268;28;21225;-40
2022/12/15 06:51:46;;;;;;;38.43;19.20;;;-4.90;18.30;;;;;;5045244;28;20460;-40
2022/12/15 06:54:12;;;;;;;37.00;18.23;;;-4.90;1.00;;;;;;5048369;28;20450;-41
2022/12/15 06:56:38;;;;;;;36.90;19.63;;;-4.90;1.00;;;;;;5050613;28;20534;-41
2022/12/15 06:59:06;;;;;;;41.13;19.43;;;-4.80;99.90;;;;;;5047559;28;20614;-40
2022/12/15 07:01:32;;;;;;;39.37;19.27;;;-4.80;60.00;;;;;;5047818;28;20448;-40
2022/12/15 07:04:00;;;;;;;37.93;19.50;;;-4.80;1.00;;;;;;5050511;28;20409;-41
2022/12/15 07:06:26;;;;;;;35.90;19.00;;;-4.90;1.00;;;;;;5050703;28;20462;-41
2022/12/15 07:08:53;;;;;;;42.93;19.10;;;-4.80;1.00;;;;;;5047203;28;20980;-41
2022/12/15 07:11:20;;;;;;;50.90;20.93;;;-4.80;1.00;;;;;;5049671;28;20556;-40
2022/12/15 07:13:58;;;;;;;45.23;18.60;;;-4.80;1.00;;;;;;5050375;28;20747;-40
2022/12/15 07:16:33;;;;;;;35.07;18.43;;;-4.80;24.80;;;;;;5049167;28;20441;-40
2022/12/15 07:18:59;;;;;;;38.50;19.00;;;-4.70;95.30;;;;;;5045322;28;20805;-40
2022/12/15 07:21:24;;;;;;;39.80;18.87;;;-4.70;69.30;;;;;;5050412;28;20522;-41
2022/12/15 07:23:50;;;;;;;38.87;19.87;;;-4.70;15.70;;;;;;5049177;28;20182;-40
2022/12/15 07:26:16;;;;;;;39.47;20.63;;;-4.70;7.20;;;;;;5047012;28;20323;-40
2022/12/15 07:28:44;;;;;;;43.70;20.20;;;-4.70;1.00;;;;;;5050018;28;20489;-41
2022/12/15 07:31:10;;;;;;;37.63;20.10;;;-4.80;1.00;;;;;;5033296;28;20966;-40
2022/12/15 07:33:40;;;;;;;44.10;19.87;;;-4.80;1.00;;;;;;5049763;28;20792;-41
2022/12/15 07:36:07;;;;;;;39.57;18.77;;;-4.80;7.50;;;;;;5045769;28;20464;-41
2022/12/15 07:38:34;;;;;;;39.43;18.97;;;-4.80;99.90;;;;;;5045663;28;20449;-40
2022/12/15 07:41:04;;;;;;;34.30;19.50;;;-4.70;1.00;;;;;;5047950;28;20622;-41
2022/12/15 07:43:31;;;;;;;38.70;18.40;;;-4.70;3.60;;;;;;5050331;28;20452;-41
2022/12/15 07:45:57;;;;;;;41.37;20.57;;;-4.60;99.90;;;;;;5049940;28;20436;-41
2022/12/15 07:48:23;;;;;;;37.30;19.27;;;-4.40;99.90;;;;;;5034427;28;20490;-40
2022/12/15 07:50:50;;;;;;;42.20;20.07;;;-4.30;99.90;;;;;;5047887;28;20245;-40
2022/12/15 07:53:16;;;;;;;43.63;20.30;;;-4.20;1.00;;;;;;5050645;28;20409;-41
2022/12/15 07:55:42;;;;;;;40.67;20.80;;;-4.20;99.90;;;;;;5050782;28;20441;-40
2022/12/15 07:58:08;;;;;;;38.60;18.50;;;-4.10;1.00;;;;;;5049671;28;21221;-40
2022/12/15 08:00:34;;;;;;;42.27;18.90;;;-4.10;99.90;;;;;;5051534;28;20189;-40
2022/12/15 08:03:01;;;;;;;36.33;18.37;;;-4.00;90.80;;;;;;5050621;28;20452;-40
2022/12/15 08:05:27;;;;;;;36.03;18.30;;;-4.00;1.00;;;;;;5049798;28;20448;-40
2022/12/15 08:07:53;;;;;;;38.33;18.40;;;-4.00;99.90;;;;;;5050461;28;20476;-40
2022/12/15 08:10:19;;;;;;;41.13;18.77;;;-3.90;99.90;;;;;;5048424;28;20444;-40
2022/12/15 08:12:44;;;;;;;38.77;18.03;;;-3.90;1.00;;;;;;5049901;28;20198;-40
2022/12/15 08:15:10;;;;;;;31.53;17.53;;;-3.90;1.00;;;;;;5050321;28;20198;-40
2022/12/15 08:17:36;;;;;;;32.33;17.00;;;-3.90;99.90;;;;;;5053273;28;20845;-40
2022/12/15 08:20:02;;;;;;;36.67;17.97;;;-4.00;99.90;;;;;;5053700;28;20460;-41
2022/12/15 08:22:28;;;;;;;36.67;17.70;;;-4.00;99.90;;;;;;5054381;28;20528;-41
2022/12/15 08:24:54;;;;;;;38.20;18.20;;;-3.90;99.90;;;;;;5034895;28;20484;-41
2022/12/15 08:27:22;;;;;;;33.73;18.47;;;-3.80;99.90;;;;;;5054291;28;20222;-40
2022/12/15 08:29:48;;;;;;;32.00;18.60;;;-3.70;99.90;;;;;;5053534;28;20614;-40
2022/12/15 08:32:14;;;;;;;39.90;18.50;;;-3.60;99.90;;;;;;5048618;28;20572;-40
2022/12/15 08:34:41;;;;;;;40.57;18.90;;;-3.50;99.90;;;;;;5051886;28;20279;-40
2022/12/15 08:37:07;;;;;;;39.00;19.10;;;-3.50;66.50;;;;;;5053558;28;20834;-40
2022/12/15 08:39:36;;;;;;;35.57;17.53;;;-3.50;1.00;;;;;;5054074;28;20738;-40
2022/12/15 08:42:01;;;;;;;39.97;18.00;;;-3.30;1.00;;;;;;5053329;28;20452;-39
2022/12/15 08:44:27;;;;;;;33.80;17.53;;;-3.30;1.00;;;;;;5053443;28;20447;-40
2022/12/15 08:46:53;;;;;;;33.80;18.10;;;-3.20;1.00;;;;;;5055065;28;20272;-41
2022/12/15 08:49:22;;;;;;;32.73;17.90;;;-3.20;1.00;;;;;;5047604;28;20456;-40
2022/12/15 08:51:49;;;;;;;35.33;17.80;;;-3.10;99.90;;;;;;5050900;28;20192;-40
2022/12/15 08:54:15;;;;;;;35.27;19.73;;;-3.10;99.90;;;;;;5049981;28;20440;-40
2022/12/15 08:56:40;;;;;;;29.37;16.20;;;-3.00;99.90;;;;;;5052474;28;20531;-41
2022/12/15 08:59:08;;;;;;;34.83;17.03;;;-2.90;99.90;;;;;;5052671;28;20203;-40
2022/12/15 09:01:38;;;;;;;30.13;17.13;;;-2.90;99.90;;;;;;5050707;28;20209;-41
2022/12/15 09:04:04;;;;;;;32.13;17.23;;;-2.90;99.90;;;;;;5052186;28;20445;-40
2022/12/15 09:06:34;;;;;;;34.20;18.77;;;-2.80;99.90;;;;;;5053461;28;20429;-40
2022/12/15 09:09:07;;;;;;;38.60;18.10;;;-2.70;99.90;;;;;;5053046;28;20436;-40
2022/12/15 09:11:33;;;;;;;39.20;17.47;;;-2.60;99.90;;;;;;5035471;28;20820;-40
2022/12/15 09:13:59;;;;;;;41.03;18.37;;;-2.60;99.90;;;;;;5052718;28;20498;-41
2022/12/15 09:16:26;;;;;;;31.97;16.80;;;-2.40;99.90;;;;;;5052636;28;20448;-40
2022/12/15 09:18:55;;;;;;;33.70;17.20;;;-2.40;99.90;;;;;;5053317;28;20424;-41
2022/12/15 09:21:23;;;;;;;31.37;17.50;;;-2.40;99.90;;;;;;5051891;28;20445;-39
2022/12/15 09:23:50;;;;;;;29.73;16.83;;;-2.40;99.90;;;;;;5053236;28;20456;-39
2022/12/15 09:26:18;;;;;;;39.50;17.00;;;-2.40;99.90;;;;;;5034181;28;20480;-41
2022/12/15 09:28:47;;;;;;;28.70;16.67;;;-2.40;99.90;;;;;;5052223;28;20496;-40
2022/12/15 09:31:20;;;;;;;38.40;17.37;;;-2.30;99.90;;;;;;5051389;28;20468;-40
2022/12/15 09:33:50;;;;;;;35.53;17.10;;;-2.20;99.90;;;;;;5052915;28;20401;-40
2022/12/15 09:36:15;;;;;;;34.17;17.27;;;-2.00;99.90;;;;;;5052407;28;20472;-41
2022/12/15 09:38:42;;;;;;;37.23;17.47;;;-1.80;99.90;;;;;;5048282;28;20912;-41
2022/12/15 09:41:26;;;;;;;36.70;17.43;;;-1.70;99.90;;;;;;5040535;28;20269;-40
2022/12/15 09:44:04;;;;;;;33.17;16.70;;;-1.60;98.60;;;;;;5051437;28;20770;-40
2022/12/15 09:46:47;;;;;;;36.40;17.07;;;-1.50;94.90;;;;;;5052856;28;20401;-39
2022/12/15 09:49:36;;;;;;;28.73;16.00;;;-1.50;81.10;;;;;;5052069;28;20444;-39
2022/12/15 09:52:10;;;;;;;29.83;16.00;;;-1.50;58.50;;;;;;5052541;28;20823;-41
2022/12/15 09:54:36;;;;;;;29.00;17.17;;;-1.50;45.50;;;;;;5060507;28;20446;-40
2022/12/15 09:57:14;;;;;;;29.33;15.33;;;-1.60;68.30;;;;;;5052694;28;20539;-40
2022/12/15 10:00:10;;;;;;;31.57;17.77;;;-1.70;99.90;;;;;;5051384;28;20448;-41
2022/12/15 10:03:03;;;;;;;43.47;18.20;;;-1.80;99.90;;;;;;5049847;28;20551;-40
2022/12/15 10:05:51;;;;;;;33.53;18.03;;;-1.90;99.90;;;;;;5047598;28;20445;-40
2022/12/15 10:08:19;;;;;;;33.03;17.90;;;-1.90;1.00;;;;;;5049467;28;20473;-40
2022/12/15 10:11:19;;;;;;;36.80;18.40;;;-1.90;1.00;;;;;;5052139;28;20991;-40
2022/12/15 10:14:06;;;;;;;33.70;18.33;;;-1.80;26.70;;;;;;5051159;28;20428;-40
2022/12/15 10:17:06;;;;;;;33.17;18.00;;;-1.80;99.90;;;;;;5050702;28;20503;-41
2022/12/15 10:19:44;;;;;;;33.80;17.80;;;-1.80;99.90;;;;;;5047216;28;20451;-40
2022/12/15 10:22:20;;;;;;;38.13;19.10;;;-1.70;1.00;;;;;;5051440;28;20933;-42
2022/12/15 10:24:46;;;;;;;34.93;19.77;;;-1.60;1.00;;;;;;5051839;28;20818;-41
2022/12/15 10:27:50;;;;;;;32.93;18.20;;;-1.50;1.00;;;;;;5050898;28;20480;-43
2022/12/15 10:30:16;;;;;;;34.27;18.07;;;-1.40;1.00;;;;;;5050099;28;20203;-40
2022/12/15 10:33:01;;;;;;;36.90;18.30;;;-1.40;99.90;;;;;;5050736;28;20861;-41
2022/12/15 10:35:35;;;;;;;33.50;17.47;;;-1.20;99.90;;;;;;5050498;28;20951;-40
2022/12/15 10:38:04;;;;;;;30.00;17.23;;;-1.20;41.40;;;;;;5042116;28;20439;-40
2022/12/15 10:40:58;;;;;;;28.70;18.13;;;-1.20;1.00;;;;;;5047532;28;20520;-41
2022/12/15 10:43:31;;;;;;;39.63;18.63;;;-1.00;1.00;;;;;;5050748;28;20453;-39
2022/12/15 10:46:18;;;;;;;34.73;18.50;;;-0.70;1.00;;;;;;5052270;28;20536;-40
2022/12/15 10:48:48;;;;;;;36.43;18.00;;;-0.70;99.90;;;;;;5048295;28;20842;-41
2022/12/15 10:51:26;;;;;;;29.80;17.33;;;-0.70;99.90;;;;;;5048856;28;20452;-42
2022/12/15 10:54:02;;;;;;;28.37;17.37;;;-0.60;99.90;;;;;;5040929;28;20449;-41
2022/12/15 10:56:29;;;;;;;31.73;19.08;;;-0.60;99.90;;;;;;5047631;28;20459;-40
2022/12/15 10:58:57;;;;;;;27.80;16.90;;;-0.50;99.90;;;;;;5046719;28;20644;-42
2022/12/15 11:01:28;;;;;;;30.53;17.80;;;-0.50;99.90;;;;;;5050833;28;20420;-42
2022/12/15 11:03:55;;;;;;;32.80;16.80;;;-0.50;99.90;;;;;;5048920;28;20417;-44
2022/12/15 11:06:24;;;;;;;24.93;15.47;;;-0.50;99.90;;;;;;5049670;28;20429;-42
2022/12/15 11:08:53;;;;;;;25.67;15.13;;;-0.50;99.90;;;;;;5038218;28;20525;-42
2022/12/15 11:14:23;;;;;;;27.75;16.27;;;-0.20;90.20;;;;;;5050094;28;20485;-41
2022/12/15 11:16:58;;;;;;;29.53;16.80;;;0.30;96.30;;;;;;5050539;28;20195;-43
2022/12/15 11:19:42;;;;;;;26.17;14.73;;;0.40;1.00;;;;;;5050355;28;20498;-42
2022/12/15 11:22:41;;;;;;;29.00;15.75;;;0.60;1.00;;;;;;5049606;28;20408;-40
2022/12/15 11:25:21;;;;;;;25.67;14.80;;;0.60;1.00;;;;;;5030602;28;20237;-43
2022/12/15 11:27:49;;;;;;;25.10;14.70;;;0.50;1.00;;;;;;5033412;28;20476;-41
2022/12/15 11:30:18;;;;;;;32.43;15.27;;;0.40;1.00;;;;;;5049883;28;20459;-41
2022/12/15 11:32:52;;;;;;;29.43;15.43;;;0.60;1.00;;;;;;5048942;28;20908;-42
2022/12/15 11:35:42;;;;;;;24.03;14.70;;;1.00;1.00;;;;;;5050791;28;20902;-42
2022/12/15 11:38:31;;;;;;;28.53;14.63;;;1.90;1.00;;;;;;5046039;28;20440;-43
2022/12/15 11:41:00;;;;;;;23.93;14.00;;;2.60;1.00;;;;;;5041139;28;20494;-44
2022/12/15 11:44:00;;;;;;;26.77;14.23;;;2.90;1.00;;;;;;5040403;28;20450;-43
2022/12/15 11:46:40;;;;;;;23.30;14.13;;;3.40;1.00;;;;;;5048221;28;20436;-44
2022/12/15 11:49:14;;;;;;;23.87;13.10;;;3.50;1.00;;;;;;5050614;28;20659;-43
2022/12/15 11:51:44;;;;;;;24.50;14.10;;;3.30;1.00;;;;;;5048747;28;20832;-43
2022/12/15 11:54:36;;;;;;;21.87;13.17;;;2.70;1.00;;;;;;5050033;28;20452;-43
2022/12/15 11:57:39;;;;;;;18.37;13.00;;;2.00;1.00;;;;;;5030209;28;20449;-44
2022/12/15 12:00:18;;;;;;;26.73;13.43;;;1.50;1.00;;;;;;5039290;28;20438;-43
2022/12/15 12:03:12;;;;;;;25.00;14.47;;;1.30;1.00;;;;;;5047753;28;20480;-44
2022/12/15 12:05:43;;;;;;;26.20;14.80;;;1.10;1.00;;;;;;5048208;28;20436;-44
2022/12/15 12:08:34;;;;;;;24.30;13.37;;;1.00;1.00;;;;;;5049725;28;20542;-44
2022/12/15 12:11:15;;;;;;;23.93;13.80;;;1.10;1.00;;;;;;5050406;28;20411;-44
2022/12/15 12:13:40;;;;;;;23.27;13.57;;;1.30;1.00;;;;;;5049974;28;20451;-43
2022/12/15 12:16:38;;;;;;;21.97;13.50;;;1.40;1.00;;;;;;5050329;28;20899;-43
2022/12/15 12:19:31;;;;;;;23.33;14.00;;;1.80;1.00;;;;;;5048708;28;20194;-44
2022/12/15 12:22:04;;;;;;;20.20;12.03;;;2.70;1.00;;;;;;5042691;28;20440;-44
2022/12/15 12:24:30;;;;;;;20.00;12.70;;;2.60;1.00;;;;;;5050380;28;20471;-44
2022/12/15 12:27:11;;;;;;;23.97;14.57;;;2.30;1.00;;;;;;5049545;28;20483;-44
2022/12/15 12:29:51;;;;;;;22.83;13.10;;;2.00;1.00;;;;;;5030853;28;20282;-44
2022/12/15 12:32:42;;;;;;;27.90;12.70;;;1.80;1.00;;;;;;5048079;28;20511;-43
2022/12/15 12:35:23;;;;;;;18.60;12.27;;;1.70;1.00;;;;;;5040856;28;20433;-44
2022/12/15 12:38:19;;;;;;;22.00;13.60;;;1.60;1.00;;;;;;5048532;28;20527;-44
2022/12/15 12:41:26;;;;;;;21.37;14.00;;;1.50;1.00;;;;;;5045631;28;20520;-44
2022/12/15 12:43:59;;;;;;;24.30;13.43;;;1.50;1.00;;;;;;5049358;28;20429;-44
2022/12/15 12:46:38;;;;;;;19.60;13.20;;;1.40;1.00;;;;;;5048278;28;20806;-43
2022/12/15 12:49:36;;;;;;;22.30;13.37;;;1.30;1.00;;;;;;5034092;28;20515;-44
2022/12/15 12:52:04;;;;;;;28.73;14.10;;;1.20;1.00;;;;;;5030082;28;20760;-44
2022/12/15 12:54:33;;;;;;;26.13;14.20;;;1.10;1.00;;;;;;5050067;28;20417;-43
2022/12/15 12:56:59;;;;;;;23.97;14.07;;;1.10;1.00;;;;;;5049559;28;20417;-44
2022/12/15 12:59:28;;;;;;;22.67;13.60;;;1.20;1.00;;;;;;5057379;28;20517;-44
2022/12/15 13:02:15;;;;;;;24.50;12.73;;;1.20;1.00;;;;;;5050209;28;20903;-44
2022/12/15 13:04:43;;;;;;;23.27;12.90;;;1.30;1.00;;;;;;5042649;28;20433;-44
2022/12/15 13:07:29;;;;;;;22.97;13.60;;;1.40;1.00;;;;;;5052614;28;20500;-43
2022/12/15 13:10:22;;;;;;;28.13;13.30;;;1.50;1.00;;;;;;5053427;28;20429;-42
2022/12/15 13:12:48;;;;;;;21.10;12.83;;;1.60;1.00;;;;;;5050246;28;20459;-41
2022/12/15 13:15:25;;;;;;;23.73;12.97;;;1.60;1.00;;;;;;5053077;28;20490;-41
2022/12/15 13:18:05;;;;;;;27.20;12.90;;;1.50;1.00;;;;;;5035186;28;20428;-41
2022/12/15 13:20:34;;;;;;;20.50;12.63;;;1.40;1.00;;;;;;5052364;28;20456;-41
2022/12/15 13:23:35;;;;;;;21.00;11.53;;;1.30;1.00;;;;;;5053291;28;21064;-42
2022/12/15 13:26:11;;;;;;;16.10;10.93;;;1.30;1.00;;;;;;5020139;28;20483;-41
2022/12/15 13:28:41;;;;;;;23.30;12.00;;;1.20;1.00;;;;;;5049785;28;20521;-40
2022/12/15 13:31:19;;;;;;;25.90;12.07;;;1.20;1.00;;;;;;5041428;28;20524;-39
2022/12/15 13:33:54;;;;;;;21.53;11.57;;;1.20;1.00;;;;;;5052164;28;20436;-41
2022/12/15 13:36:38;;;;;;;19.80;12.07;;;1.20;1.00;;;;;;5052873;28;20409;-41
2022/12/15 13:39:16;;;;;;;24.03;11.77;;;1.10;1.00;;;;;;5052393;28;20456;-41
2022/12/15 13:41:48;;;;;;;21.67;12.40;;;1.20;1.00;;;;;;5053238;28;21084;-41
2022/12/15 13:44:34;;;;;;;24.97;11.80;;;1.20;1.00;;;;;;5051831;28;20440;-41
2022/12/15 13:47:13;;;;;;;23.43;12.00;;;1.20;1.00;;;;;;5052319;28;20849;-41
2022/12/15 13:49:47;;;;;;;20.70;11.70;;;1.20;1.00;;;;;;5052018;28;20448;-40
2022/12/15 13:52:32;;;;;;;19.57;11.50;;;1.20;1.00;;;;;;5053055;28;20409;-41
2022/12/15 13:55:15;;;;;;;24.43;11.60;;;1.20;1.00;;;;;;5051869;28;20479;-41
2022/12/15 13:57:57;;;;;;;42.23;12.33;;;1.30;1.00;;;;;;5052494;28;20483;-42
2022/12/15 14:00:23;;;;;;;21.33;11.73;;;1.30;1.00;;;;;;5051867;28;20808;-42
2022/12/15 14:02:48;;;;;;;18.40;11.13;;;1.30;1.00;;;;;;5051838;28;20890;-42
2022/12/15 14:05:22;;;;;;;22.07;12.20;;;1.30;1.00;;;;;;5052362;28;20470;-42
2022/12/15 14:07:54;;;;;;;21.00;10.90;;;1.30;1.00;;;;;;5051997;28;20198;-42
2022/12/15 14:10:22;;;;;;;21.17;12.70;;;1.30;1.00;;;;;;5054912;28;20425;-42
2022/12/15 14:12:50;;;;;;;22.50;11.50;;;1.30;1.00;;;;;;5051645;28;20452;-42
2022/12/15 14:15:18;;;;;;;21.57;11.47;;;1.40;1.00;;;;;;5052479;28;20413;-41
2022/12/15 14:17:49;;;;;;;22.63;11.93;;;1.40;1.00;;;;;;5052247;28;20482;-42
2022/12/15 14:20:25;;;;;;;21.77;11.47;;;1.40;1.00;;;;;;5052179;28;20762;-41
2022/12/15 14:22:51;;;;;;;21.50;12.20;;;1.40;1.00;;;;;;5051319;28;20452;-42
2022/12/15 14:25:19;;;;;;;21.47;10.53;;;1.40;1.00;;;;;;5051750;28;20476;-42
2022/12/15 14:27:45;;;;;;;18.67;11.40;;;1.50;1.00;;;;;;5050907;28;20567;-42
2022/12/15 14:30:31;;;;;;;19.07;11.77;;;1.50;1.00;;;;;;5051176;28;20524;-41
2022/12/15 14:33:26;;;;;;;23.73;11.03;;;1.50;1.00;;;;;;5051515;28;20421;-42
2022/12/15 14:35:55;;;;;;;20.20;10.13;;;1.50;1.00;;;;;;5048005;28;20548;-41
2022/12/15 14:38:37;;;;;;;22.13;10.93;;;1.50;1.00;;;;;;5050564;28;20532;-42
2022/12/15 14:41:04;;;;;;;19.10;10.93;;;1.50;1.00;;;;;;5051866;28;20401;-42
2022/12/15 14:43:37;;;;;;;22.73;11.70;;;1.50;1.00;;;;;;5051123;28;20793;-42
2022/12/15 14:46:09;;;;;;;21.83;11.90;;;1.50;1.00;;;;;;5050636;28;20521;-42
2022/12/15 14:48:39;;;;;;;17.03;10.27;;;1.50;1.00;;;;;;5049613;28;20526;-41
2022/12/15 14:51:07;;;;;;;19.17;11.03;;;1.50;1.00;;;;;;5049255;28;20950;-41
2022/12/15 14:53:37;;;;;;;18.37;11.33;;;1.50;1.00;;;;;;5050887;28;20455;-42
2022/12/15 14:56:26;;;;;;;24.00;11.07;;;1.40;1.00;;;;;;5049945;28;20436;-42
2022/12/15 14:58:58;;;;;;;23.20;12.00;;;1.40;1.00;;;;;;5051636;28;20458;-42
2022/12/15 15:01:35;;;;;;;21.00;11.33;;;1.40;1.00;;;;;;5041437;28;20537;-42
2022/12/15 15:04:20;;;;;;;19.37;11.03;;;1.40;1.00;;;;;;5043848;28;20471;-42
2022/12/15 15:06:46;;;;;;;16.20;10.73;;;1.40;1.00;;;;;;5034731;28;20774;-42
2022/12/15 15:09:25;;;;;;;19.03;11.77;;;1.40;1.00;;;;;;5048557;28;20446;-41
2022/12/15 15:12:06;;;;;;;24.47;12.13;;;1.40;1.00;;;;;;5050758;28;20182;-41
2022/12/15 15:14:44;;;;;;;21.00;11.60;;;1.40;1.00;;;;;;5046628;28;20440;-42
2022/12/15 15:17:13;;;;;;;21.73;10.97;;;1.40;1.00;;;;;;5050782;28;20496;-41
2022/12/15 15:19:49;;;;;;;19.37;11.80;;;1.40;1.00;;;;;;5045222;28;21280;-40
2022/12/15 15:22:39;;;;;;;19.60;11.77;;;1.50;1.00;;;;;;5050873;28;20503;-40
2022/12/15 15:25:25;;;;;;;19.57;12.00;;;1.50;1.00;;;;;;5045395;28;21067;-40
2022/12/15 15:27:51;;;;;;;25.33;13.47;;;1.40;1.00;;;;;;5028128;28;20483;-41
2022/12/15 15:30:23;;;;;;;23.47;12.30;;;1.40;1.00;;;;;;5047163;28;20441;-41
2022/12/15 15:33:08;;;;;;;21.37;12.30;;;1.40;1.00;;;;;;5049381;28;20281;-42
2022/12/15 15:35:34;;;;;;;20.50;12.20;;;1.40;1.00;;;;;;5048803;28;20448;-41